Time;durP1;ratioP1;P1;durP2;ratioP2;P2;SDS_P1;SDS_P2;PMS_P1;PMS_P2;Temp;Humidity;BMP_temperature;BMP_pressure;BME280_temperature;BME280_humidity;BME280_pressure;Samples;Min_cycle;Max_cycle;Signal;HPM_P1;HPM_P2
2022/01/05 00:00:09;;;;;;;1.53;1.10;;;5.60;94.70;;;;;;4962832;28;20443;-76
2022/01/05 00:02:39;;;;;;;2.47;1.60;;;5.60;94.70;;;;;;4953738;28;20869;-76
2022/01/05 00:05:06;;;;;;;1.40;1.10;;;5.70;94.80;;;;;;4965326;28;20481;-75
2022/01/05 00:07:33;;;;;;;2.63;1.37;;;5.60;94.70;;;;;;4961622;28;20439;-76
2022/01/05 00:09:59;;;;;;;1.20;1.10;;;5.60;94.60;;;;;;4948544;28;20455;-76
2022/01/05 00:12:25;;;;;;;1.00;0.90;;;5.70;94.40;;;;;;4951271;28;20431;-76
2022/01/05 00:14:51;;;;;;;0.97;0.90;;;5.70;94.10;;;;;;4954163;28;20901;-75
2022/01/05 00:17:16;;;;;;;1.40;1.10;;;5.60;94.00;;;;;;4952107;29;20462;-76
2022/01/05 00:19:43;;;;;;;1.30;1.00;;;5.60;94.00;;;;;;4956966;28;20197;-76
2022/01/05 00:22:10;;;;;;;1.30;1.20;;;5.60;94.00;;;;;;4952405;28;20424;-76
2022/01/05 00:24:36;;;;;;;1.10;0.80;;;5.70;93.90;;;;;;4959199;28;20478;-76
2022/01/05 00:27:05;;;;;;;0.80;0.80;;;5.60;93.70;;;;;;4957543;28;20428;-75
2022/01/05 00:29:31;;;;;;;2.00;1.10;;;5.60;93.70;;;;;;4968147;28;20431;-74
2022/01/05 00:31:57;;;;;;;1.20;0.90;;;5.60;93.90;;;;;;4955840;28;20972;-75
2022/01/05 00:34:22;;;;;;;1.00;0.93;;;5.60;93.90;;;;;;4959688;28;20204;-75
2022/01/05 00:36:48;;;;;;;1.43;1.00;;;5.60;94.10;;;;;;4956167;28;20279;-77
2022/01/05 00:39:14;;;;;;;1.17;0.90;;;5.60;94.10;;;;;;4955558;29;20191;-77
2022/01/05 00:41:40;;;;;;;1.90;1.17;;;5.50;94.10;;;;;;4956685;28;20235;-77
2022/01/05 00:44:06;;;;;;;1.20;1.10;;;5.50;94.20;;;;;;4959710;28;20350;-75
2022/01/05 00:46:32;;;;;;;1.47;0.90;;;5.50;94.10;;;;;;4962242;28;21346;-75
2022/01/05 00:48:57;;;;;;;1.00;0.80;;;5.50;94.10;;;;;;4960641;28;20295;-75
2022/01/05 00:51:23;;;;;;;1.73;1.00;;;5.50;94.20;;;;;;4962234;28;20192;-74
2022/01/05 00:53:49;;;;;;;1.20;0.80;;;5.50;94.20;;;;;;4955727;28;20203;-75
2022/01/05 00:56:14;;;;;;;1.53;0.93;;;5.40;94.30;;;;;;4962672;28;20262;-74
2022/01/05 00:58:40;;;;;;;1.10;0.87;;;5.50;94.20;;;;;;4956530;29;20192;-75
2022/01/05 01:01:06;;;;;;;1.40;1.00;;;5.50;94.00;;;;;;4957946;28;20212;-75
2022/01/05 01:03:32;;;;;;;1.33;0.67;;;5.50;94.10;;;;;;4966697;28;20215;-75
2022/01/05 01:06:00;;;;;;;0.80;0.63;;;5.40;94.10;;;;;;4959119;28;20219;-76
2022/01/05 01:08:27;;;;;;;0.80;0.60;;;5.50;94.20;;;;;;4959302;28;20184;-75
2022/01/05 01:10:53;;;;;;;1.17;0.80;;;5.50;94.10;;;;;;4957953;28;20459;-76
2022/01/05 01:13:20;;;;;;;1.60;0.80;;;5.50;94.10;;;;;;4962485;28;20449;-75
2022/01/05 01:15:50;;;;;;;1.07;0.50;;;5.50;94.00;;;;;;4959612;28;20447;-75
2022/01/05 01:18:16;;;;;;;1.00;0.57;;;5.50;94.00;;;;;;4957121;28;20451;-76
2022/01/05 01:20:42;;;;;;;1.47;0.90;;;5.50;93.90;;;;;;4956147;28;20427;-75
2022/01/05 01:23:09;;;;;;;0.90;0.63;;;5.50;94.00;;;;;;4958213;28;20522;-76
2022/01/05 01:25:35;;;;;;;2.60;0.80;;;5.50;93.90;;;;;;4965792;28;20531;-77
2022/01/05 01:28:02;;;;;;;1.47;0.70;;;5.60;93.90;;;;;;4964572;28;20919;-76
2022/01/05 01:30:31;;;;;;;1.20;0.63;;;5.60;93.80;;;;;;4970161;28;20422;-74
2022/01/05 01:32:57;;;;;;;1.57;0.80;;;5.60;93.80;;;;;;4962204;28;20443;-75
2022/01/05 01:35:23;;;;;;;0.90;0.60;;;5.60;93.70;;;;;;4969995;28;20527;-76
2022/01/05 01:37:49;;;;;;;1.33;0.50;;;5.60;93.50;;;;;;4953514;28;20510;-76
2022/01/05 01:40:15;;;;;;;1.60;0.70;;;5.60;93.50;;;;;;4954303;28;20434;-74
2022/01/05 01:42:40;;;;;;;0.80;0.60;;;5.60;93.60;;;;;;4954645;28;20187;-76
2022/01/05 01:45:06;;;;;;;1.20;0.90;;;5.60;93.70;;;;;;4957454;28;20992;-75
2022/01/05 01:47:32;;;;;;;0.60;0.60;;;5.70;93.70;;;;;;4955956;28;20184;-75
2022/01/05 01:49:58;;;;;;;0.60;0.60;;;5.70;93.50;;;;;;4956427;28;20501;-75
2022/01/05 01:52:24;;;;;;;1.10;0.83;;;5.70;93.30;;;;;;4955197;28;20426;-74
2022/01/05 01:54:51;;;;;;;0.70;0.60;;;5.70;93.40;;;;;;4955280;28;20240;-75
2022/01/05 01:57:19;;;;;;;0.80;0.60;;;5.80;93.30;;;;;;4960805;28;20194;-75
2022/01/05 01:59:46;;;;;;;1.00;0.70;;;5.80;93.20;;;;;;4955904;28;20495;-76
2022/01/05 02:02:12;;;;;;;1.00;0.67;;;5.80;93.30;;;;;;4962699;28;20426;-76
2022/01/05 02:04:39;;;;;;;1.00;0.70;;;5.80;93.20;;;;;;4955380;28;20986;-75
2022/01/05 02:07:05;;;;;;;1.07;0.60;;;5.80;93.30;;;;;;4954092;29;20420;-74
2022/01/05 02:09:30;;;;;;;0.70;0.70;;;5.80;93.20;;;;;;4956802;28;20429;-77
2022/01/05 02:11:56;;;;;;;1.03;0.80;;;5.80;93.20;;;;;;4953913;28;20974;-75
2022/01/05 02:14:22;;;;;;;1.47;0.73;;;5.90;93.20;;;;;;4953135;28;20698;-75
2022/01/05 02:16:48;;;;;;;0.80;0.70;;;5.90;93.00;;;;;;4961395;28;20428;-74
2022/01/05 02:19:14;;;;;;;1.10;0.90;;;6.00;93.00;;;;;;4956030;28;20203;-75
2022/01/05 02:21:42;;;;;;;1.80;0.80;;;6.00;93.00;;;;;;4953809;28;20219;-76
2022/01/05 02:24:08;;;;;;;1.27;0.80;;;6.00;92.90;;;;;;4955013;28;20818;-75
2022/01/05 02:26:35;;;;;;;1.67;0.97;;;6.00;92.80;;;;;;4955258;28;20468;-75
2022/01/05 02:29:01;;;;;;;1.10;0.67;;;6.00;92.50;;;;;;4962989;28;20481;-76
2022/01/05 02:31:27;;;;;;;1.27;0.80;;;6.10;92.50;;;;;;4957517;28;20424;-74
2022/01/05 02:33:53;;;;;;;1.73;0.83;;;6.00;92.80;;;;;;4959357;28;20628;-75
2022/01/05 02:36:20;;;;;;;0.90;0.70;;;6.00;93.00;;;;;;4954151;29;20203;-75
2022/01/05 02:38:48;;;;;;;0.90;0.70;;;6.00;92.90;;;;;;4963411;28;20426;-75
2022/01/05 02:41:14;;;;;;;1.53;0.70;;;6.00;93.00;;;;;;4955608;28;20514;-76
2022/01/05 02:43:41;;;;;;;0.80;0.60;;;6.00;93.00;;;;;;4954783;28;20442;-76
2022/01/05 02:46:12;;;;;;;0.90;0.70;;;6.00;93.00;;;;;;4953680;28;20471;-74
2022/01/05 02:48:39;;;;;;;0.97;0.73;;;6.00;93.00;;;;;;4955809;29;20423;-77
2022/01/05 02:51:05;;;;;;;0.73;0.70;;;6.00;92.90;;;;;;4957060;28;20420;-75
2022/01/05 02:53:32;;;;;;;1.77;0.73;;;6.00;93.00;;;;;;4959689;28;20445;-75
2022/01/05 02:55:58;;;;;;;0.87;0.77;;;6.00;93.00;;;;;;4961744;28;20909;-75
2022/01/05 02:58:24;;;;;;;1.20;1.00;;;6.00;93.10;;;;;;4959369;28;20569;-75
2022/01/05 03:00:49;;;;;;;5.03;1.00;;;6.00;93.20;;;;;;4952669;28;20195;-75
2022/01/05 03:03:15;;;;;;;0.80;0.70;;;5.90;93.50;;;;;;4951839;28;20212;-77
2022/01/05 03:05:41;;;;;;;1.53;0.80;;;5.90;93.90;;;;;;4951987;29;20467;-76
2022/01/05 03:08:07;;;;;;;0.93;0.70;;;5.80;94.30;;;;;;4958418;28;20427;-75
2022/01/05 03:10:33;;;;;;;0.80;0.70;;;5.80;94.70;;;;;;4953711;28;20451;-76
2022/01/05 03:12:59;;;;;;;1.03;0.90;;;5.70;94.90;;;;;;4952242;28;20210;-76
2022/01/05 03:15:25;;;;;;;1.00;0.93;;;5.60;95.10;;;;;;4953618;28;20427;-76
2022/01/05 03:17:50;;;;;;;1.13;0.90;;;5.60;95.20;;;;;;4960171;28;20730;-76
2022/01/05 03:20:17;;;;;;;1.33;0.90;;;5.60;95.40;;;;;;4958383;28;20191;-76
2022/01/05 03:22:44;;;;;;;1.00;0.80;;;5.60;95.30;;;;;;4962193;28;20259;-73
2022/01/05 03:25:16;;;;;;;1.30;1.00;;;5.60;95.20;;;;;;4959256;28;20463;-75
2022/01/05 03:27:46;;;;;;;1.10;0.70;;;5.60;94.80;;;;;;4958052;28;20813;-75
2022/01/05 03:30:14;;;;;;;1.23;0.80;;;5.70;94.70;;;;;;4954522;29;20435;-75
2022/01/05 03:35:26;;;;;;;0.87;0.60;;;5.70;94.50;;;;;;4958350;28;20522;-75
2022/01/05 03:37:51;;;;;;;1.80;0.90;;;5.80;94.10;;;;;;4956961;28;20454;-75
2022/01/05 03:40:17;;;;;;;0.70;0.67;;;5.80;93.80;;;;;;4958377;28;20434;-75
2022/01/05 03:42:43;;;;;;;0.90;0.60;;;5.80;93.40;;;;;;4955078;28;20206;-76
2022/01/05 03:45:09;;;;;;;1.00;0.70;;;5.80;93.30;;;;;;4956072;28;20224;-75
2022/01/05 03:47:35;;;;;;;0.90;0.57;;;5.80;93.30;;;;;;4954560;28;20188;-75
2022/01/05 03:50:00;;;;;;;0.80;0.70;;;5.90;93.20;;;;;;4956364;28;20449;-76
2022/01/05 03:52:26;;;;;;;1.10;0.67;;;5.80;93.10;;;;;;4957100;28;20246;-76
2022/01/05 03:54:52;;;;;;;0.70;0.70;;;5.90;93.10;;;;;;4963133;28;20230;-76
2022/01/05 03:57:18;;;;;;;0.63;0.60;;;5.80;93.00;;;;;;4960543;28;20203;-75
2022/01/05 03:59:43;;;;;;;0.50;0.50;;;5.80;93.00;;;;;;4959969;28;20668;-75
2022/01/05 04:02:09;;;;;;;0.60;0.60;;;5.80;92.70;;;;;;4954774;28;20195;-74
2022/01/05 04:04:35;;;;;;;0.60;0.50;;;5.80;92.60;;;;;;4961184;28;20662;-75
2022/01/05 04:07:01;;;;;;;0.70;0.53;;;5.80;92.70;;;;;;4956259;28;20270;-75
2022/01/05 04:09:26;;;;;;;0.70;0.60;;;5.80;92.70;;;;;;4966457;28;20647;-75
2022/01/05 04:11:52;;;;;;;0.60;0.60;;;5.80;92.80;;;;;;4960079;28;20435;-75
2022/01/05 04:14:18;;;;;;;0.53;0.50;;;5.80;92.80;;;;;;4957939;28;20210;-75
2022/01/05 04:16:44;;;;;;;1.10;0.67;;;5.80;92.80;;;;;;4964133;28;20194;-75
2022/01/05 04:19:09;;;;;;;1.40;0.70;;;5.80;92.80;;;;;;4961132;28;20188;-75
2022/01/05 04:21:35;;;;;;;0.60;0.50;;;5.90;92.70;;;;;;4966754;28;20222;-75
2022/01/05 04:24:01;;;;;;;0.70;0.50;;;5.80;92.60;;;;;;4959148;28;20203;-75
2022/01/05 04:26:27;;;;;;;0.70;0.50;;;5.80;92.70;;;;;;4956412;28;20215;-75
2022/01/05 04:28:53;;;;;;;0.70;0.60;;;5.90;92.80;;;;;;4959090;28;20444;-75
2022/01/05 04:31:18;;;;;;;0.70;0.60;;;5.90;92.70;;;;;;4959898;28;20247;-75
2022/01/05 04:33:44;;;;;;;0.70;0.60;;;5.80;92.90;;;;;;4970435;28;20212;-75
2022/01/05 04:36:10;;;;;;;0.70;0.70;;;5.80;93.00;;;;;;4961746;28;20206;-75
2022/01/05 04:38:35;;;;;;;0.70;0.53;;;5.80;93.00;;;;;;4972660;28;20254;-74
2022/01/05 04:41:01;;;;;;;1.13;0.70;;;5.80;93.20;;;;;;4961806;29;20682;-74
2022/01/05 04:43:27;;;;;;;0.80;0.70;;;5.80;93.60;;;;;;4957291;28;20287;-75
2022/01/05 04:45:53;;;;;;;1.40;0.70;;;5.70;94.30;;;;;;4953959;29;20208;-75
2022/01/05 04:48:18;;;;;;;1.00;0.70;;;5.60;94.70;;;;;;4975163;28;20192;-76
2022/01/05 04:50:44;;;;;;;1.33;0.70;;;5.50;95.30;;;;;;4971158;28;20620;-77
2022/01/05 04:53:11;;;;;;;1.03;0.60;;;5.40;95.70;;;;;;4964937;29;20211;-75
2022/01/05 04:55:39;;;;;;;0.63;0.60;;;5.30;96.00;;;;;;4963254;28;20982;-76
2022/01/05 04:58:05;;;;;;;0.50;0.50;;;5.20;96.30;;;;;;4960046;28;20438;-76
2022/01/05 05:00:31;;;;;;;0.97;0.80;;;5.20;96.70;;;;;;4954093;28;20470;-78
2022/01/05 05:02:57;;;;;;;1.17;0.97;;;5.10;97.00;;;;;;4956096;28;20466;-76
2022/01/05 05:05:23;;;;;;;0.93;0.70;;;5.10;97.10;;;;;;4956536;28;20467;-76
2022/01/05 05:07:48;;;;;;;2.50;1.07;;;5.10;97.30;;;;;;4959829;28;20262;-76
2022/01/05 05:10:14;;;;;;;1.57;0.70;;;5.00;97.20;;;;;;4954572;28;20431;-75
2022/01/05 05:12:40;;;;;;;0.70;0.60;;;5.00;97.30;;;;;;4954566;28;20695;-76
2022/01/05 05:15:06;;;;;;;1.20;0.90;;;5.00;97.30;;;;;;4955312;28;20662;-76
2022/01/05 05:17:32;;;;;;;1.10;0.97;;;5.00;97.20;;;;;;4954481;29;20290;-77
2022/01/05 05:19:58;;;;;;;2.40;1.10;;;5.00;97.20;;;;;;4954373;29;20507;-76
2022/01/05 05:22:23;;;;;;;1.63;1.00;;;5.10;97.00;;;;;;4957734;28;20470;-76
2022/01/05 05:24:49;;;;;;;1.33;0.80;;;5.20;96.70;;;;;;4955820;28;20219;-76
2022/01/05 05:27:15;;;;;;;4.83;1.47;;;5.20;96.50;;;;;;4954829;28;20295;-76
2022/01/05 05:29:41;;;;;;;1.17;1.07;;;4.70;94.10;;;;;;4954608;28;20216;-76
2022/01/05 05:32:07;;;;;;;2.70;1.30;;;4.10;93.10;;;;;;4957521;28;20219;-75
2022/01/05 05:34:33;;;;;;;2.17;1.17;;;3.70;93.90;;;;;;4954548;28;20211;-75
2022/01/05 05:36:58;;;;;;;1.13;0.80;;;3.40;94.70;;;;;;4954389;28;20420;-75
2022/01/05 05:39:24;;;;;;;1.70;1.20;;;3.00;95.20;;;;;;4955662;28;20203;-77
2022/01/05 05:41:50;;;;;;;2.27;1.30;;;2.80;95.90;;;;;;4958035;29;20184;-78
2022/01/05 05:44:15;;;;;;;3.30;2.17;;;2.70;96.30;;;;;;4957210;28;20208;-78
2022/01/05 05:46:41;;;;;;;2.13;1.57;;;2.60;96.80;;;;;;4959488;28;20212;-79
2022/01/05 05:49:07;;;;;;;2.60;1.50;;;2.60;97.20;;;;;;4955257;28;20180;-78
2022/01/05 05:51:33;;;;;;;1.63;1.23;;;2.60;97.50;;;;;;4955036;28;20184;-77
2022/01/05 05:53:58;;;;;;;1.83;1.43;;;2.60;97.50;;;;;;4955105;28;20216;-80
2022/01/05 05:56:25;;;;;;;4.60;1.50;;;2.60;97.60;;;;;;4955862;29;20206;-78
2022/01/05 05:58:51;;;;;;;1.43;1.20;;;2.60;97.60;;;;;;4955818;29;20195;-78
2022/01/05 06:01:16;;;;;;;1.87;1.40;;;2.60;97.70;;;;;;4957121;28;20427;-78
2022/01/05 06:03:42;;;;;;;2.70;1.70;;;2.70;97.80;;;;;;4962496;28;20210;-78
2022/01/05 06:06:08;;;;;;;1.87;1.73;;;2.70;97.90;;;;;;4955012;29;20230;-79
2022/01/05 06:08:33;;;;;;;2.10;1.63;;;2.50;97.80;;;;;;4955178;29;20190;-79
2022/01/05 06:10:59;;;;;;;3.20;1.77;;;2.60;97.90;;;;;;4955490;28;20271;-77
2022/01/05 06:13:25;;;;;;;2.10;1.60;;;2.60;97.90;;;;;;4954325;29;20211;-77
2022/01/05 06:15:50;;;;;;;3.70;1.77;;;2.70;98.10;;;;;;4963452;28;20227;-76
2022/01/05 06:18:16;;;;;;;2.27;1.60;;;2.70;98.10;;;;;;4964901;28;20612;-77
2022/01/05 06:20:42;;;;;;;2.67;2.10;;;2.80;98.00;;;;;;4960349;28;20196;-75
2022/01/05 06:23:08;;;;;;;4.43;2.30;;;2.80;97.80;;;;;;4960133;28;20210;-77
2022/01/05 06:25:33;;;;;;;3.03;1.67;;;2.80;97.70;;;;;;4955919;28;20215;-77
2022/01/05 06:27:59;;;;;;;4.40;1.37;;;3.00;97.50;;;;;;4953826;28;20222;-75
2022/01/05 06:30:25;;;;;;;2.43;1.93;;;3.00;96.80;;;;;;4962184;28;20191;-76
2022/01/05 06:32:51;;;;;;;2.30;1.73;;;3.10;96.70;;;;;;4958626;28;20799;-75
2022/01/05 06:35:19;;;;;;;3.87;1.73;;;3.10;96.80;;;;;;4953200;28;20506;-77
2022/01/05 06:37:45;;;;;;;3.57;1.80;;;3.20;96.80;;;;;;4951330;28;20192;-75
2022/01/05 06:40:11;;;;;;;2.17;1.80;;;3.20;96.70;;;;;;4951356;29;20447;-76
2022/01/05 06:42:37;;;;;;;2.67;1.83;;;3.20;96.60;;;;;;4952592;28;20188;-75
2022/01/05 06:45:04;;;;;;;4.93;1.70;;;3.20;96.60;;;;;;4952646;29;20562;-76
2022/01/05 06:47:29;;;;;;;3.57;2.13;;;3.20;96.40;;;;;;4953051;28;20239;-76
2022/01/05 06:49:55;;;;;;;2.63;1.60;;;3.30;96.50;;;;;;4952199;28;20776;-76
2022/01/05 06:52:21;;;;;;;3.13;1.60;;;3.40;96.50;;;;;;4953889;28;20180;-76
2022/01/05 06:54:46;;;;;;;2.80;1.60;;;3.30;96.20;;;;;;4957529;28;20250;-74
2022/01/05 06:57:12;;;;;;;2.80;1.87;;;3.20;95.50;;;;;;4959752;28;20295;-76
2022/01/05 06:59:39;;;;;;;3.30;2.10;;;3.30;95.70;;;;;;4958255;28;20188;-75
2022/01/05 07:02:05;;;;;;;4.50;1.60;;;3.30;95.90;;;;;;4958591;28;20180;-75
2022/01/05 07:04:31;;;;;;;1.42;1.35;;;3.10;95.80;;;;;;4959295;28;20479;-75
2022/01/05 07:06:57;;;;;;;3.77;1.93;;;3.10;96.00;;;;;;4952263;28;20685;-75
2022/01/05 07:09:23;;;;;;;2.03;1.47;;;3.00;96.20;;;;;;4951895;28;20506;-76
2022/01/05 07:11:49;;;;;;;2.30;1.30;;;3.00;96.40;;;;;;4952084;28;20415;-76
2022/01/05 07:14:14;;;;;;;3.43;2.07;;;3.00;96.50;;;;;;4952707;28;20563;-77
2022/01/05 07:16:40;;;;;;;4.50;1.40;;;3.00;96.70;;;;;;4959195;28;20190;-76
2022/01/05 07:19:06;;;;;;;2.97;1.97;;;3.00;96.90;;;;;;4953290;28;20192;-77
2022/01/05 07:21:33;;;;;;;2.80;1.90;;;3.10;96.60;;;;;;4954330;28;20283;-76
2022/01/05 07:24:00;;;;;;;2.70;1.67;;;3.10;96.50;;;;;;4954450;28;20200;-76
2022/01/05 07:26:27;;;;;;;4.28;1.80;;;3.10;96.70;;;;;;4955845;28;20478;-77
2022/01/05 07:28:54;;;;;;;2.40;1.90;;;3.20;96.80;;;;;;4951568;28;20567;-76
2022/01/05 07:31:20;;;;;;;2.53;2.03;;;3.10;96.30;;;;;;4955439;28;20641;-74
2022/01/05 07:33:45;;;;;;;3.80;1.93;;;3.00;95.20;;;;;;4957849;28;20450;-76
2022/01/05 07:36:12;;;;;;;3.93;1.80;;;3.10;95.00;;;;;;4955163;28;20184;-76
2022/01/05 07:38:38;;;;;;;2.60;1.85;;;3.10;94.50;;;;;;4959432;28;20187;-76
2022/01/05 07:41:04;;;;;;;3.90;2.23;;;3.10;93.70;;;;;;4952125;29;20194;-75
2022/01/05 07:43:30;;;;;;;5.20;2.83;;;3.10;93.90;;;;;;4958127;28;20457;-74
2022/01/05 07:45:56;;;;;;;2.53;1.80;;;3.10;93.30;;;;;;4952400;29;20970;-75
2022/01/05 07:48:22;;;;;;;4.33;2.20;;;3.10;92.90;;;;;;4955819;28;20429;-75
2022/01/05 07:50:48;;;;;;;2.97;1.83;;;3.10;92.10;;;;;;4954817;28;20825;-75
2022/01/05 07:53:13;;;;;;;4.67;2.40;;;3.10;91.40;;;;;;4957368;28;20498;-76
2022/01/05 07:55:39;;;;;;;11.10;2.10;;;3.10;91.00;;;;;;4960106;28;20674;-74
2022/01/05 07:58:06;;;;;;;4.87;2.83;;;3.00;90.60;;;;;;4952074;28;20196;-76
2022/01/05 08:00:32;;;;;;;3.63;2.13;;;3.00;90.60;;;;;;4957740;28;20309;-76
2022/01/05 08:02:57;;;;;;;6.57;3.30;;;3.00;90.60;;;;;;4953459;28;20229;-77
2022/01/05 08:05:23;;;;;;;4.40;2.53;;;3.00;91.00;;;;;;4954188;28;20998;-77
2022/01/05 08:07:49;;;;;;;6.00;3.10;;;3.00;90.30;;;;;;4959117;28;20176;-76
2022/01/05 08:10:15;;;;;;;10.33;2.83;;;3.00;90.80;;;;;;4957926;28;20539;-75
2022/01/05 08:12:41;;;;;;;5.90;3.00;;;3.00;91.10;;;;;;4956974;28;20569;-77
2022/01/05 08:15:11;;;;;;;5.40;2.77;;;3.00;91.10;;;;;;4951173;29;20707;-76
2022/01/05 08:17:38;;;;;;;5.80;2.77;;;3.00;91.00;;;;;;4950008;28;20431;-77
2022/01/05 08:20:06;;;;;;;6.30;3.65;;;3.00;90.80;;;;;;4956624;28;20804;-76
2022/01/05 08:22:32;;;;;;;3.30;2.90;;;2.90;90.60;;;;;;4951598;28;20192;-76
2022/01/05 08:24:58;;;;;;;7.05;3.38;;;2.90;90.50;;;;;;4951401;28;20463;-76
2022/01/05 08:27:24;;;;;;;6.10;3.13;;;3.00;91.20;;;;;;4955423;28;20186;-76
2022/01/05 08:29:50;;;;;;;5.40;2.97;;;3.00;90.60;;;;;;4958802;28;20187;-76
2022/01/05 08:32:15;;;;;;;11.27;3.23;;;3.00;89.90;;;;;;4955826;28;20223;-75
2022/01/05 08:34:41;;;;;;;6.40;2.73;;;3.00;88.40;;;;;;4954931;28;20204;-76
2022/01/05 08:37:07;;;;;;;5.47;2.73;;;2.90;88.00;;;;;;4952022;28;20329;-77
2022/01/05 08:39:33;;;;;;;4.10;3.27;;;2.80;87.10;;;;;;4951330;28;20758;-76
2022/01/05 08:41:58;;;;;;;5.67;2.73;;;2.80;87.10;;;;;;4951145;29;20263;-78
2022/01/05 08:44:24;;;;;;;5.50;3.57;;;2.80;87.70;;;;;;4953797;28;20679;-77
2022/01/05 08:46:50;;;;;;;5.87;3.00;;;2.80;87.40;;;;;;4951143;28;20667;-76
2022/01/05 08:49:16;;;;;;;6.47;2.70;;;2.80;87.30;;;;;;4956062;28;20659;-78
2022/01/05 08:51:43;;;;;;;3.50;2.90;;;2.70;86.80;;;;;;4955042;28;20180;-77
2022/01/05 08:54:08;;;;;;;3.53;2.80;;;2.70;87.60;;;;;;4957153;28;20628;-78
2022/01/05 08:56:34;;;;;;;4.13;2.30;;;2.70;87.30;;;;;;4960591;28;20239;-76
2022/01/05 08:59:00;;;;;;;7.37;2.87;;;2.70;85.50;;;;;;4960262;28;20727;-76
2022/01/05 09:01:26;;;;;;;5.20;2.83;;;2.60;85.00;;;;;;4961449;29;20192;-78
2022/01/05 09:03:52;;;;;;;4.43;2.90;;;2.60;85.90;;;;;;4963822;29;20250;-77
2022/01/05 09:06:19;;;;;;;5.05;2.70;;;2.70;87.40;;;;;;4972550;28;20474;-77
2022/01/05 09:08:45;;;;;;;7.40;3.20;;;2.80;86.50;;;;;;4958152;28;20187;-77
2022/01/05 09:11:11;;;;;;;7.47;2.97;;;2.90;84.70;;;;;;4959913;28;20482;-76
2022/01/05 09:13:37;;;;;;;7.20;3.27;;;2.90;83.30;;;;;;4958407;28;20207;-76
2022/01/05 09:16:04;;;;;;;8.37;2.70;;;3.00;84.40;;;;;;4956553;28;20199;-78
2022/01/05 09:18:29;;;;;;;5.28;3.30;;;3.10;84.60;;;;;;4957080;28;20184;-76
2022/01/05 09:20:55;;;;;;;4.90;2.70;;;3.10;84.40;;;;;;4956475;29;20188;-77
2022/01/05 09:23:21;;;;;;;7.30;2.60;;;3.00;83.10;;;;;;4958844;28;20288;-76
2022/01/05 09:25:47;;;;;;;3.50;2.50;;;3.00;83.00;;;;;;4961698;28;20297;-76
2022/01/05 09:28:13;;;;;;;2.80;2.20;;;3.00;83.40;;;;;;4956364;29;20192;-77
2022/01/05 09:30:39;;;;;;;5.23;2.30;;;3.00;81.90;;;;;;4957644;28;20654;-76
2022/01/05 09:33:04;;;;;;;6.17;3.00;;;3.00;82.20;;;;;;4957116;28;20530;-77
2022/01/05 09:35:33;;;;;;;8.57;3.30;;;3.00;81.20;;;;;;4956510;29;20275;-78
2022/01/05 09:43:11;;;;;;;4.60;2.67;;;3.10;79.90;;;;;;4950858;29;20506;-77
2022/01/05 09:45:42;;;;;;;8.23;3.20;;;3.20;80.60;;;;;;4959806;28;20561;-78
2022/01/05 09:48:38;;;;;;;5.53;2.77;;;3.30;80.30;;;;;;4956736;29;20661;-76
2022/01/05 09:51:12;;;;;;;5.73;2.80;;;3.40;80.50;;;;;;4963255;28;20419;-77
2022/01/05 09:53:38;;;;;;;5.35;2.60;;;3.30;79.60;;;;;;4959482;28;20461;-78
2022/01/05 09:56:05;;;;;;;5.40;2.37;;;3.20;79.60;;;;;;4958048;28;20188;-76
2022/01/05 09:58:32;;;;;;;5.97;2.93;;;3.30;79.90;;;;;;4956431;28;20435;-77
2022/01/05 10:00:59;;;;;;;3.80;2.38;;;3.30;79.90;;;;;;4956636;28;20482;-77
2022/01/05 10:03:26;;;;;;;5.40;2.97;;;3.30;78.70;;;;;;4957587;29;20666;-76
2022/01/05 10:05:52;;;;;;;6.32;2.50;;;3.20;79.20;;;;;;4956454;28;20467;-76
2022/01/05 10:08:18;;;;;;;5.10;2.17;;;3.20;77.10;;;;;;4962265;28;20640;-76
2022/01/05 10:10:44;;;;;;;9.33;2.50;;;3.10;76.80;;;;;;4963996;28;20198;-78
2022/01/05 10:13:10;;;;;;;3.10;2.20;;;3.10;77.70;;;;;;4958925;29;20215;-77
2022/01/05 10:15:36;;;;;;;3.60;2.20;;;3.10;77.80;;;;;;4957154;29;20578;-77
2022/01/05 10:18:16;;;;;;;11.63;2.83;;;3.20;77.40;;;;;;4957339;29;20251;-78
2022/01/05 10:21:02;;;;;;;5.67;2.50;;;3.10;74.80;;;;;;4958578;28;20922;-77
2022/01/05 10:23:56;;;;;;;11.20;2.85;;;3.00;74.90;;;;;;4959215;28;20860;-77
2022/01/05 10:26:28;;;;;;;5.65;2.20;;;2.90;75.80;;;;;;4962185;28;20227;-77
2022/01/05 10:29:14;;;;;;;12.65;3.08;;;2.90;73.70;;;;;;4954924;28;20180;-76
2022/01/05 10:31:45;;;;;;;7.25;3.15;;;2.90;73.50;;;;;;4958710;28;20270;-76
2022/01/05 10:34:20;;;;;;;9.63;3.00;;;2.90;72.90;;;;;;4954941;28;20208;-77
2022/01/05 10:36:51;;;;;;;4.18;2.38;;;2.80;73.00;;;;;;4956613;29;20266;-77
2022/01/05 10:39:35;;;;;;;5.37;2.70;;;2.80;73.60;;;;;;4963206;28;20183;-77
2022/01/05 10:42:10;;;;;;;8.23;2.47;;;2.70;72.90;;;;;;4960948;28;20507;-77
2022/01/05 10:44:37;;;;;;;8.80;2.10;;;2.80;73.90;;;;;;4957678;29;20793;-74
2022/01/05 10:47:05;;;;;;;10.63;3.38;;;2.80;73.30;;;;;;4949321;28;20450;-70
2022/01/05 10:49:36;;;;;;;10.90;3.70;;;3.00;74.60;;;;;;4958575;28;20247;-78
2022/01/05 10:52:20;;;;;;;10.07;2.58;;;3.20;73.20;;;;;;4954355;28;20424;-73
2022/01/05 10:54:47;;;;;;;5.65;2.55;;;3.20;72.30;;;;;;4954869;28;20271;-75
2022/01/05 10:57:14;;;;;;;8.43;2.75;;;3.20;71.70;;;;;;4955385;29;20190;-75
2022/01/05 10:59:42;;;;;;;12.53;2.60;;;3.30;71.70;;;;;;4956598;28;20184;-74
2022/01/05 11:02:21;;;;;;;7.83;2.20;;;3.50;70.70;;;;;;4962592;28;20425;-73
2022/01/05 11:04:47;;;;;;;7.30;2.47;;;3.60;70.10;;;;;;4960907;29;20443;-76
2022/01/05 11:07:20;;;;;;;8.40;2.67;;;3.70;70.10;;;;;;4954771;29;20455;-75
2022/01/05 11:10:13;;;;;;;6.10;2.40;;;3.70;67.70;;;;;;4959090;28;20203;-75
2022/01/05 11:12:50;;;;;;;5.30;2.47;;;3.70;68.80;;;;;;4953424;28;20444;-74
2022/01/05 11:15:31;;;;;;;16.57;2.77;;;3.60;69.20;;;;;;4955986;28;20574;-74
2022/01/05 11:18:17;;;;;;;7.40;3.10;;;3.60;68.60;;;;;;4950690;28;20438;-76
2022/01/05 11:20:51;;;;;;;5.20;2.53;;;3.50;68.30;;;;;;4955798;28;20431;-75
2022/01/05 11:23:19;;;;;;;11.03;2.33;;;3.60;69.40;;;;;;4953306;28;20478;-75
2022/01/05 11:25:46;;;;;;;7.87;2.30;;;3.60;69.20;;;;;;4953096;28;20498;-76
2022/01/05 11:28:14;;;;;;;8.13;3.20;;;3.60;68.60;;;;;;4957483;28;20878;-75
2022/01/05 11:30:42;;;;;;;4.73;2.23;;;3.60;69.70;;;;;;4954415;28;20435;-75
2022/01/05 11:33:08;;;;;;;5.43;2.23;;;3.60;69.90;;;;;;4959573;28;21139;-76
2022/01/05 11:35:34;;;;;;;6.40;2.53;;;3.50;69.40;;;;;;4962288;28;20845;-75
2022/01/05 11:38:02;;;;;;;9.70;2.90;;;3.50;69.70;;;;;;4956039;28;20498;-76
2022/01/05 11:40:29;;;;;;;5.57;2.70;;;3.70;70.40;;;;;;4954575;29;20455;-72
2022/01/05 11:43:02;;;;;;;8.07;3.17;;;3.80;69.90;;;;;;4950639;28;20469;-75
2022/01/05 11:45:36;;;;;;;9.83;2.60;;;3.90;69.70;;;;;;4950297;28;20534;-74
2022/01/05 11:48:22;;;;;;;10.37;3.13;;;4.00;69.50;;;;;;4954695;28;20431;-74
2022/01/05 11:51:01;;;;;;;9.53;2.27;;;3.70;69.40;;;;;;4950671;28;20490;-72
2022/01/05 11:53:44;;;;;;;8.73;2.40;;;3.70;69.70;;;;;;4951002;28;21139;-74
2022/01/05 11:56:18;;;;;;;10.07;2.60;;;3.50;69.90;;;;;;4950782;28;20449;-72
2022/01/05 11:59:03;;;;;;;10.77;3.20;;;3.30;70.50;;;;;;4952929;28;20925;-72
2022/01/05 12:01:34;;;;;;;7.23;2.90;;;3.30;71.00;;;;;;4956393;28;20493;-73
2022/01/05 12:04:05;;;;;;;5.30;2.60;;;3.30;70.80;;;;;;4954387;28;20459;-73
2022/01/05 12:06:34;;;;;;;5.07;2.43;;;3.20;71.10;;;;;;4948843;28;20894;-73
2022/01/05 12:09:03;;;;;;;7.30;3.03;;;3.30;71.70;;;;;;4954061;28;20638;-72
2022/01/05 12:11:38;;;;;;;8.60;3.20;;;3.50;71.40;;;;;;4953905;28;20967;-74
2022/01/05 12:14:20;;;;;;;9.83;2.43;;;3.80;71.10;;;;;;4949114;29;20435;-71
2022/01/05 12:19:27;;;;;;;8.00;2.50;;;4.10;69.50;;;;;;4951115;28;20869;-71
2022/01/05 12:21:55;;;;;;;6.70;2.87;;;4.10;70.10;;;;;;4949850;28;20788;-73
2022/01/05 12:24:21;;;;;;;5.53;2.27;;;4.10;69.80;;;;;;4958922;28;20503;-72
2022/01/05 12:27:16;;;;;;;5.83;2.50;;;4.00;68.60;;;;;;4958660;28;20569;-73
2022/01/05 12:29:43;;;;;;;9.33;2.70;;;4.00;69.10;;;;;;4958409;28;20444;-75
2022/01/05 12:32:09;;;;;;;6.40;2.35;;;4.00;69.10;;;;;;4966348;28;20473;-75
2022/01/05 12:34:56;;;;;;;6.53;2.37;;;4.00;68.20;;;;;;4961117;28;20320;-75
2022/01/05 12:37:55;;;;;;;6.03;2.50;;;3.90;68.60;;;;;;4951758;29;20427;-75
2022/01/05 12:40:46;;;;;;;8.10;2.80;;;3.80;68.30;;;;;;4951281;29;20803;-76
2022/01/05 12:43:15;;;;;;;5.80;2.20;;;3.80;69.20;;;;;;4955394;28;20509;-75
2022/01/05 12:45:52;;;;;;;13.80;3.10;;;3.70;68.80;;;;;;4955643;28;20459;-76
2022/01/05 12:48:31;;;;;;;8.40;2.53;;;3.50;68.90;;;;;;4960882;28;20421;-76
2022/01/05 12:51:12;;;;;;;6.80;2.30;;;3.30;69.50;;;;;;4953627;29;20179;-76
2022/01/05 12:53:50;;;;;;;5.35;2.30;;;3.30;69.50;;;;;;4961400;28;20207;-76
2022/01/05 12:56:20;;;;;;;5.20;2.20;;;3.40;69.40;;;;;;4957541;28;20206;-75
2022/01/05 12:58:48;;;;;;;5.43;2.10;;;3.50;69.50;;;;;;4954625;28;20497;-76
2022/01/05 13:01:15;;;;;;;8.20;1.93;;;3.60;68.50;;;;;;4956089;29;20438;-75
2022/01/05 13:03:40;;;;;;;4.13;2.30;;;3.70;68.30;;;;;;4958124;28;20459;-75
2022/01/05 13:06:18;;;;;;;7.00;2.40;;;3.70;68.50;;;;;;4957651;28;20470;-75
2022/01/05 13:09:00;;;;;;;11.23;2.60;;;3.80;69.10;;;;;;4957766;28;20192;-75